Glen Spey, New York
Current Conditions -  °F | °C
As of 2:55 AM on Wednesday 26 Nov 2014 (Local Time) from KMSV Reporting Station
Clear Clear  
Wind Chill: -2°   Ceiling: Unl
Heat Index:   Visibility: 10mi
Dew Point: -3°   Wind: 7mph
Humidity: 75%   Direction: 350°N
Pressure: 30.18"   Gusts: NA
Location:  41.48°N, 74.81°W
Report Text: KMSV 260755Z AUTO 35006KT 10SM CLR 01/M03 A3018 RMK AO1
Loading
Personal Weather Stations






























Interactive Weather Map New forecast layout! Learn more

10-Day Weather Forecast

Advertisements
Track Severe Weather on mobile